Flight Track Log - Related Links

Times and Time Zones

All times are in EDT time to prevent confusion due to time zone crossing. See the THA106 flight status page for this flight to view local times or setup timezone preferences in your user account.

Time Position Orientation Groundspeed Altitude Reporting Facility
EDT Latitude Longitude Course Direction KTS MPH feet Rate Location/Type
Mon 11:51:15 PM 13.7071 100.7384 342° North  Level Estimated
Mon 11:52:15 PM 13.8110 100.7029 342° North  Level Estimated
Mon 11:53:15 PM 13.9148 100.6673 342° North  Level Estimated
Mon 11:54:15 PM 14.0187 100.6317 342° North  Level Estimated
Mon 11:55:15 PM 14.1226 100.5960 342° North  Level Estimated
Mon 11:56:15 PM 14.2264 100.5604 342° North  Level Estimated
Mon 11:57:15 PM 14.3303 100.5247 342° North  Level Estimated
Mon 11:58:15 PM 14.4341 100.4889 342° North  Level Estimated
Mon 11:59:15 PM 14.5380 100.4531 342° North  Level Estimated
Tue 12:00:15 AM 14.6418 100.4173 342° North  Level Estimated
Tue 12:01:15 AM 14.7456 100.3815 342° North  Level Estimated
Tue 12:02:15 AM 14.8495 100.3456 342° North  Level Estimated
Tue 12:03:15 AM 14.9533 100.3097 342° North  Level Estimated
Tue 12:04:15 AM 15.0571 100.2738 342° North  Level Estimated
Tue 12:05:15 AM 15.1609 100.2378 341° North  Level Estimated
Tue 12:06:15 AM 15.2647 100.2018 341° North  Level Estimated
Tue 12:07:15 AM 15.3685 100.1657 341° North  Level Estimated
Tue 12:08:15 AM 15.4723 100.1297 341° North  Level Estimated
Tue 12:09:15 AM 15.5761 100.0935 341° North  Level Estimated
Tue 12:10:15 AM 15.6799 100.0574 341° North  Level Estimated
Tue 12:11:15 AM 15.7836 100.0212 341° North  Level Estimated
Tue 12:12:15 AM 15.8874 99.9849 341° North  Level Estimated
Tue 12:13:15 AM 15.9912 99.9487 341° North  Level Estimated
Tue 12:14:15 AM 16.0949 99.9124 341° North  Level Estimated
Tue 12:15:15 AM 16.1987 99.8760 341° North  Level Estimated
Tue 12:16:15 AM 16.3024 99.8396 341° North  Level Estimated
Tue 12:17:15 AM 16.4062 99.8032 341° North  Level Estimated
Tue 12:18:15 AM 16.5099 99.7668 341° North  Level Estimated
Tue 12:19:15 AM 16.6136 99.7303 341° North  Level Estimated
Tue 12:20:15 AM 16.7173 99.6937 341° North  Level Estimated
Tue 12:21:15 AM 16.8210 99.6571 341° North  Level Estimated
Tue 12:22:15 AM 16.9247 99.6205 341° North  Level Estimated
Tue 12:23:15 AM 17.0284 99.5839 341° North  Level Estimated
Tue 12:24:15 AM 17.1321 99.5472 341° North  Level Estimated
Tue 12:25:15 AM 17.2358 99.5104 341° North  Level Estimated
Tue 12:26:15 AM 17.3395 99.4736 341° North  Level Estimated
Tue 12:27:15 AM 17.4432 99.4368 341° North  Level Estimated
Tue 12:28:15 AM 17.5468 99.4000 341° North  Level Estimated
Tue 12:29:15 AM 17.6505 99.3631 341° North  Level Estimated
Tue 12:30:15 AM 17.7541 99.3261 341° North  Level Estimated
Tue 12:31:15 AM 17.8578 99.2891 341° North  Level Estimated
Tue 12:32:15 AM 17.9614 99.2521 341° North  Level Estimated
Tue 12:33:15 AM 18.0650 99.2150 341° North  Level Estimated
Tue 12:34:15 AM 18.1687 99.1779 341° North  Level Estimated
Tue 12:35:15 AM 18.2723 99.1407 341° North  Level Estimated
Tue 12:36:15 AM 18.3759 99.1035 341° North  Level Estimated
Tue 12:37:15 AM 18.4795 99.0662 341° North  Level Estimated
Tue 12:38:15 AM 18.5831 99.0289 341° North  Level Estimated
Tue 12:39:15 AM 18.6867 98.9916 341° North  Level Estimated
Tue 12:40:15 AM 18.7902 98.9542 161° South  Level Estimated
Tue 12:41:15 AM 18.6867 98.9916 341° North  Level Estimated
Tue 12:42:15 AM 18.7902 98.9542 161° South  Level Estimated
Tue 12:43:15 AM 18.6867 98.9916 341° North  Level Estimated
Tue 12:44:15 AM 18.7902 98.9542 161° South  Level Estimated
Tue 12:45:15 AM 18.6867 98.9916 341° North  Level Estimated
Tue 12:46:15 AM 18.7902 98.9542 161° South  Level Estimated
Tue 12:47:15 AM 18.6867 98.9916 341° North  Level Estimated
Tue 12:48:15 AM 18.7902 98.9542 161° South  Level Estimated
Tue 12:49:15 AM 18.6867 98.9916 161° South  Level Estimated

Login

Don't have an account? Register now (free) for customized features, flight alerts, and more!